Time;durP1;ratioP1;P1;durP2;ratioP2;P2;SDS_P1;SDS_P2;PMS_P1;PMS_P2;Temp;Humidity;BMP_temperature;BMP_pressure;BME280_temperature;BME280_humidity;BME280_pressure;Samples;Min_cycle;Max_cycle;Signal;HPM_P1;HPM_P2
2021/11/17 02:27:34;;;;;;;;;60.25;41.75;;;;;10.12;94.04;101785.53;5093982;27;45371;-58
2021/11/17 02:30:26;;;;;;;;;58.25;40.25;;;;;10.05;94.01;101779.53;5069589;28;45327;-58
2021/11/17 02:33:14;;;;;;;;;57.00;43.25;;;;;9.99;94.34;101780.41;5081247;28;46461;-59
2021/11/17 02:36:01;;;;;;;;;62.50;43.25;;;;;9.95;94.56;101781.31;5082289;27;45839;-59
2021/11/17 02:38:33;;;;;;;;;65.75;48.75;;;;;9.95;94.55;101765.75;5082570;27;45365;-58
2021/11/17 02:41:23;;;;;;;;;61.75;43.00;;;;;9.93;94.35;101757.13;5081738;27;45336;-58
2021/11/17 02:43:51;;;;;;;;;58.50;41.75;;;;;9.90;94.88;101753.69;5082174;27;46707;-58
2021/11/17 02:46:41;;;;;;;;;60.75;42.75;;;;;9.87;94.73;101764.97;5082477;27;45793;-58
2021/11/17 02:49:22;;;;;;;;;55.00;40.75;;;;;9.84;95.04;101769.31;5081277;27;45356;-58
2021/11/17 02:51:59;;;;;;;;;59.75;42.75;;;;;9.80;94.95;101776.25;5075877;28;45399;-58
2021/11/17 02:54:25;;;;;;;;;57.00;40.00;;;;;9.78;94.99;101785.78;5081016;28;45337;-58
2021/11/17 02:57:21;;;;;;;;;62.00;44.00;;;;;9.78;95.30;101790.97;5080367;28;45330;-58
2021/11/17 03:00:04;;;;;;;;;63.50;42.75;;;;;9.73;95.58;101790.16;5082135;27;45310;-58
2021/11/17 03:02:46;;;;;;;;;60.25;42.00;;;;;9.76;96.15;101790.13;5070758;28;45454;-59
2021/11/17 03:05:24;;;;;;;;;63.50;45.00;;;;;9.82;95.69;101786.66;5081797;28;46382;-58
2021/11/17 03:08:14;;;;;;;;;62.25;45.75;;;;;9.86;95.55;101791.78;5094914;27;45867;-59
2021/11/17 03:11:11;;;;;;;;;63.50;47.00;;;;;9.85;96.33;101794.41;5104211;27;45432;-59
2021/11/17 03:13:52;;;;;;;;;54.75;42.00;;;;;9.84;96.05;101805.66;5081812;28;45385;-58
2021/11/17 03:16:36;;;;;;;;;58.50;45.50;;;;;9.88;95.59;101805.63;5081716;27;45692;-59
2021/11/17 03:19:30;;;;;;;;;58.50;42.50;;;;;9.96;95.59;101808.16;5081412;27;45459;-59
2021/11/17 03:22:14;;;;;;;;;59.00;42.25;;;;;10.00;95.21;101815.91;5069040;28;45477;-61
2021/11/17 03:25:11;;;;;;;;;54.00;38.50;;;;;9.99;95.60;101829.75;5095290;27;45434;-58
2021/11/17 03:28:07;;;;;;;;;53.00;41.75;;;;;9.97;96.02;101839.31;5080708;27;45417;-61
2021/11/17 03:30:38;;;;;;;;;55.50;39.75;;;;;9.95;95.77;101840.19;5081432;28;45285;-59
2021/11/17 03:33:33;;;;;;;;;62.50;42.25;;;;;9.96;95.94;101840.19;5081356;27;45285;-60
2021/11/17 03:36:11;;;;;;;;;57.00;41.75;;;;;9.96;95.78;101842.78;5081240;27;45572;-60
2021/11/17 03:38:52;;;;;;;;;58.75;41.75;;;;;9.99;95.81;101829.75;5081255;27;45425;-57
2021/11/17 03:41:46;;;;;;;;;55.50;43.00;;;;;10.00;95.50;101834.06;5076141;27;45558;-58
2021/11/17 03:44:47;;;;;;;;;61.00;43.25;;;;;10.04;95.86;101834.94;5072920;28;45297;-58
2021/11/17 03:47:13;;;;;;;;;50.75;38.50;;;;;10.02;95.52;101842.75;5051006;27;46149;-58
2021/11/17 03:50:00;;;;;;;;;60.00;43.00;;;;;10.04;95.75;101848.78;5080641;28;45258;-58
2021/11/17 03:52:45;;;;;;;;;63.50;45.00;;;;;10.04;95.49;101853.13;5075768;28;45246;-58
2021/11/17 03:55:18;;;;;;;;;57.25;43.00;;;;;10.04;95.68;101848.78;5077988;28;45242;-57
2021/11/17 03:57:49;;;;;;;;;60.75;42.25;;;;;10.07;95.95;101850.50;5080379;27;45256;-57
2021/11/17 04:00:20;;;;;;;;;56.50;42.25;;;;;10.10;95.64;101853.06;5080610;28;45343;-58
2021/11/17 04:02:48;;;;;;;;;62.50;43.25;;;;;10.15;95.75;101858.22;5081070;28;45362;-58
2021/11/17 04:05:27;;;;;;;;;54.25;42.00;;;;;10.20;95.33;101854.69;5079671;28;45392;-57
2021/11/17 04:07:59;;;;;;;;;55.75;41.25;;;;;10.27;95.11;101858.16;5080960;28;45670;-57
2021/11/17 04:10:37;;;;;;;;;60.25;42.75;;;;;10.28;94.93;101860.75;5080386;27;46462;-57
2021/11/17 04:13:44;;;;;;;;;60.25;46.00;;;;;10.25;95.10;101852.13;5082082;27;46027;-57
2021/11/17 04:16:41;;;;;;;;;58.75;38.00;;;;;10.30;94.81;101871.13;5052888;27;45525;-57
2021/11/17 04:19:25;;;;;;;;;56.75;42.00;;;;;10.31;94.92;101870.25;5080341;28;45418;-57
2021/11/17 04:21:57;;;;;;;;;56.75;42.00;;;;;10.31;95.02;101878.03;5066965;28;46990;-57
2021/11/17 04:24:29;;;;;;;;;59.75;43.00;;;;;10.32;94.90;101890.16;5080661;27;45773;-58
2021/11/17 04:26:57;;;;;;;;;58.00;41.25;;;;;10.31;95.02;101885.84;5080604;28;45352;-58
2021/11/17 04:29:40;;;;;;;;;55.75;40.25;;;;;10.35;95.00;101880.59;5080544;27;45241;-58
2021/11/17 04:32:39;;;;;;;;;53.75;39.50;;;;;10.40;94.88;101888.34;5078052;27;46299;-58
2021/11/17 04:35:17;;;;;;;;;56.75;41.50;;;;;10.39;95.01;101889.22;5069272;28;45391;-57
2021/11/17 04:38:01;;;;;;;;;51.50;37.75;;;;;10.38;95.08;101884.91;5077966;28;45597;-58
2021/11/17 04:40:46;;;;;;;;;56.00;39.75;;;;;10.33;95.86;101900.53;5077380;28;46064;-57
2021/11/17 04:43:14;;;;;;;;;51.25;40.50;;;;;10.31;95.44;101898.84;5077895;27;45707;-58
2021/11/17 04:46:13;;;;;;;;;51.00;43.00;;;;;10.32;95.65;101892.75;5078682;28;45533;-57
2021/11/17 04:49:03;;;;;;;;;56.25;42.75;;;;;10.33;96.29;101897.94;5078678;28;45403;-57
2021/11/17 04:51:49;;;;;;;;;64.25;46.00;;;;;10.32;96.35;101895.34;5080343;28;45515;-58
2021/11/17 04:54:53;;;;;;;;;65.00;44.50;;;;;10.29;96.82;101895.38;5069718;28;46243;-58
2021/11/17 04:57:57;;;;;;;;;59.25;43.50;;;;;10.26;96.91;101893.69;5052999;28;45887;-58
2021/11/17 05:00:33;;;;;;;;;51.75;39.75;;;;;10.25;96.62;101889.34;5076163;28;45425;-59
2021/11/17 05:03:13;;;;;;;;;56.50;39.50;;;;;10.27;97.23;101895.41;5079962;28;45302;-59
2021/11/17 05:05:56;;;;;;;;;58.75;42.75;;;;;10.30;96.81;101887.56;5079749;28;46196;-58
2021/11/17 05:08:52;;;;;;;;;48.75;36.00;;;;;10.37;97.01;101883.19;5080024;27;45391;-58
2021/11/17 05:11:29;;;;;;;;;50.75;38.25;;;;;10.38;97.07;101886.63;5079618;28;45222;-58
2021/11/17 05:14:22;;;;;;;;;55.00;40.00;;;;;10.37;97.25;101890.97;5080128;28;45286;-58
2021/11/17 05:17:03;;;;;;;;;44.50;37.50;;;;;10.40;97.30;101890.09;5068703;28;45582;-58
2021/11/17 05:20:02;;;;;;;;;54.25;39.25;;;;;10.45;97.15;101886.59;5078095;27;45538;-58
2021/11/17 05:22:46;;;;;;;;;59.25;39.50;;;;;10.52;96.63;101890.00;5073192;28;45468;-59
2021/11/17 05:25:14;;;;;;;;;48.75;38.50;;;;;10.54;96.80;101883.91;5068421;28;45361;-58
2021/11/17 05:27:51;;;;;;;;;53.50;39.25;;;;;10.52;96.46;101890.00;5079063;28;46180;-58
2021/11/17 05:30:35;;;;;;;;;54.00;37.50;;;;;10.51;97.08;101889.13;5079431;28;45859;-57
2021/11/17 05:33:27;;;;;;;;;51.50;38.25;;;;;10.51;96.75;101883.06;5066057;28;45490;-57
2021/11/17 05:36:11;;;;;;;;;52.25;38.25;;;;;10.51;96.88;101876.13;5074057;28;45224;-58
2021/11/17 05:38:55;;;;;;;;;57.50;38.75;;;;;10.49;96.98;101870.09;5071592;28;45353;-57
2021/11/17 05:41:45;;;;;;;;;39.50;35.00;;;;;10.49;96.82;101877.88;5066803;28;45334;-58
2021/11/17 05:44:17;;;;;;;;;46.75;37.00;;;;;10.49;96.75;101883.09;5078033;28;45533;-61
2021/11/17 05:46:58;;;;;;;;;53.00;39.50;;;;;10.46;97.22;101870.13;5079295;28;45242;-61
2021/11/17 05:50:14;;;;;;;;;51.75;39.00;;;;;10.46;97.24;101880.53;5078552;27;46209;-61
2021/11/17 05:52:55;;;;;;;;;51.50;36.75;;;;;10.50;97.21;101873.56;5049758;28;45905;-61
2021/11/17 05:55:48;;;;;;;;;47.25;35.25;;;;;10.53;97.29;101858.78;5078817;28;45502;-61
2021/11/17 05:58:39;;;;;;;;;36.75;36.00;;;;;10.55;97.27;101867.44;5078851;27;45231;-61
2021/11/17 06:01:19;;;;;;;;;41.00;31.50;;;;;10.61;97.17;101861.31;5079107;28;45294;-61
2021/11/17 06:03:58;;;;;;;;;40.25;36.25;;;;;10.64;97.17;101856.97;5066219;28;45252;-61
2021/11/17 06:06:23;;;;;;;;;46.00;38.50;;;;;10.66;96.88;101850.00;5078704;27;45460;-61
2021/11/17 06:08:54;;;;;;;;;51.00;34.00;;;;;10.69;96.95;101858.66;5078776;28;45329;-61
2021/11/17 06:11:24;;;;;;;;;41.00;35.00;;;;;10.68;97.22;101867.31;5081206;27;46475;-61
2021/11/17 06:13:50;;;;;;;;;42.25;31.75;;;;;10.65;96.98;101852.63;5088692;27;45252;-60
2021/11/17 06:16:15;;;;;;;;;48.50;36.25;;;;;10.70;97.12;101849.97;5079292;27;45354;-61
2021/11/17 06:18:43;;;;;;;;;50.25;32.50;;;;;10.75;97.19;101858.56;5080530;28;45321;-61
2021/11/17 06:21:10;;;;;;;;;44.00;34.50;;;;;10.74;96.91;101857.72;5068453;27;45250;-61
2021/11/17 06:23:48;;;;;;;;;43.00;35.50;;;;;10.74;97.06;101856.84;5081856;27;45181;-62
2021/11/17 06:26:26;;;;;;;;;50.00;36.25;;;;;10.81;97.16;101858.50;5086198;27;45480;-61
2021/11/17 06:28:59;;;;;;;;;39.50;35.25;;;;;10.82;96.75;101853.31;5088387;27;45747;-61
2021/11/17 06:31:26;;;;;;;;;46.50;35.25;;;;;10.82;96.76;101866.31;5068847;28;46525;-60
2021/11/17 06:33:51;;;;;;;;;39.00;34.75;;;;;10.84;96.94;101866.31;5081988;27;45391;-59
2021/11/17 06:36:17;;;;;;;;;44.00;28.50;;;;;10.80;97.38;101868.03;5081712;28;45317;-60
2021/11/17 06:38:44;;;;;;;;;41.50;35.00;;;;;10.76;96.70;101860.28;5081627;27;45304;-59
2021/11/17 06:41:09;;;;;;;;;43.50;31.25;;;;;10.75;97.43;101866.38;5081409;27;46463;-59
2021/11/17 06:43:35;;;;;;;;;39.75;31.50;;;;;10.70;97.66;101868.16;5081746;27;45219;-59
2021/11/17 06:46:00;;;;;;;;;39.00;31.50;;;;;10.71;97.57;101881.16;5082125;28;45358;-59
2021/11/17 06:48:30;;;;;;;;;41.25;30.00;;;;;10.70;97.81;101878.56;5081334;28;45330;-59
2021/11/17 06:50:58;;;;;;;;;50.00;37.25;;;;;10.71;97.89;101872.50;5081823;27;46070;-59
2021/11/17 06:53:25;;;;;;;;;40.00;31.75;;;;;10.71;98.22;101881.16;5081439;28;45274;-59
2021/11/17 06:55:51;;;;;;;;;48.75;38.00;;;;;10.70;97.88;101878.56;5082023;27;45715;-59
2021/11/17 06:58:17;;;;;;;;;48.00;34.00;;;;;10.69;97.87;101901.09;5081317;28;45461;-59
2021/11/17 07:00:46;;;;;;;;;49.00;32.75;;;;;10.70;98.13;101908.03;5081389;27;46290;-59
2021/11/17 07:03:12;;;;;;;;;40.50;34.75;;;;;10.74;97.78;101907.13;5080525;27;45298;-59
2021/11/17 07:05:37;;;;;;;;;36.50;33.75;;;;;10.76;97.91;101918.34;5081424;27;45270;-59
2021/11/17 07:08:04;;;;;;;;;44.25;32.25;;;;;10.78;97.82;101920.94;5080929;27;45401;-60
2021/11/17 07:10:32;;;;;;;;;48.00;35.50;;;;;10.83;97.71;101927.84;5080651;27;45316;-60
2021/11/17 07:12:58;;;;;;;;;54.00;36.75;;;;;10.80;97.97;101934.78;5080470;27;45338;-60
2021/11/17 07:15:25;;;;;;;;;47.25;36.00;;;;;10.81;97.56;101937.41;5081047;27;45358;-61
2021/11/17 07:17:51;;;;;;;;;49.50;37.50;;;;;10.83;97.90;101940.00;5080903;27;45375;-61
2021/11/17 07:20:17;;;;;;;;;45.75;35.00;;;;;10.81;98.23;101942.59;5072876;27;46455;-61
2021/11/17 07:22:44;;;;;;;;;74.50;53.00;;;;;10.81;98.32;101936.50;5076652;28;45216;-61
2021/11/17 07:25:17;;;;;;;;;42.00;34.00;;;;;10.86;98.17;101951.22;5090049;27;45285;-59
2021/11/17 07:27:43;;;;;;;;;49.75;34.50;;;;;10.93;97.85;101952.00;5097811;27;45448;-59
2021/11/17 07:30:11;;;;;;;;;48.00;35.25;;;;;10.96;97.47;101967.59;5080809;27;46527;-60
2021/11/17 07:32:37;;;;;;;;;42.00;34.50;;;;;11.00;97.84;101969.28;5080785;27;45255;-58
2021/11/17 07:35:03;;;;;;;;;51.75;36.50;;;;;11.03;97.62;101979.69;5080887;28;45339;-56
2021/11/17 07:37:29;;;;;;;;;47.75;37.00;;;;;11.05;97.48;101977.06;5080210;27;45397;-56
2021/11/17 07:39:54;;;;;;;;;49.00;33.50;;;;;11.06;97.67;101979.63;5078603;27;46268;-57
2021/11/17 07:42:20;;;;;;;;;47.50;36.50;;;;;11.02;97.48;101977.94;5080054;28;45321;-57
2021/11/17 07:44:48;;;;;;;;;43.25;33.25;;;;;10.99;97.69;101980.56;5080207;28;45556;-57
2021/11/17 07:47:13;;;;;;;;;44.50;33.00;;;;;11.01;97.53;101989.19;5080268;28;45367;-56
2021/11/17 07:49:39;;;;;;;;;41.50;31.25;;;;;11.03;97.61;101987.47;5069974;28;46655;-58
2021/11/17 07:52:04;;;;;;;;;39.75;30.00;;;;;11.04;97.51;101978.81;5080561;27;45475;-58
2021/11/17 07:54:30;;;;;;;;;49.50;38.25;;;;;11.05;97.49;101980.53;5080643;27;45408;-59
2021/11/17 07:56:59;;;;;;;;;35.75;32.50;;;;;11.11;97.46;101987.41;5079839;27;45539;-56
2021/11/17 07:59:28;;;;;;;;;29.25;29.25;;;;;11.17;97.45;101980.38;5079501;27;46406;-57
2021/11/17 08:01:56;;;;;;;;;48.25;36.50;;;;;11.16;97.16;101978.66;5077592;27;45243;-57
2021/11/17 08:04:23;;;;;;;;;42.50;34.75;;;;;11.15;97.35;101979.53;5078026;27;45340;-57
2021/11/17 08:06:51;;;;;;;;;34.50;22.50;;;;;11.15;97.02;101963.94;5077838;27;45421;-57
2021/11/17 08:09:18;;;;;;;;;43.75;35.00;;;;;11.16;97.07;101976.06;5078430;27;46396;-57
2021/11/17 08:11:44;;;;;;;;;50.50;35.00;;;;;11.16;97.24;101988.19;5078088;28;45386;-57
2021/11/17 08:14:10;;;;;;;;;51.25;35.75;;;;;11.14;97.44;101988.22;5078042;27;45555;-57
2021/11/17 08:16:37;;;;;;;;;52.25;37.75;;;;;11.17;97.09;101993.38;5077731;27;45330;-57
2021/11/17 08:19:03;;;;;;;;;42.25;27.50;;;;;11.17;97.12;101990.78;5078882;27;45570;-58
2021/11/17 08:21:28;;;;;;;;;43.75;34.50;;;;;11.18;97.17;101989.03;5070940;27;45303;-58
2021/11/17 08:23:53;;;;;;;;;46.75;36.00;;;;;11.17;97.17;101997.72;5088794;27;45313;-64
2021/11/17 08:26:21;;;;;;;;;46.25;34.00;;;;;11.19;97.27;101999.44;5079376;27;45575;-60
2021/11/17 08:28:47;;;;;;;;;47.75;37.25;;;;;11.19;98.01;101994.22;5080277;27;46501;-60
2021/11/17 08:31:13;;;;;;;;;38.00;30.00;;;;;11.23;97.64;102001.16;5080278;27;45420;-58
2021/11/17 08:33:42;;;;;;;;;55.50;38.00;;;;;11.23;97.50;101992.50;5078901;28;45366;-58
2021/11/17 08:36:08;;;;;;;;;47.75;36.75;;;;;11.34;97.56;101998.44;5079391;28;45457;-57
2021/11/17 08:38:34;;;;;;;;;48.75;36.00;;;;;11.43;97.34;101992.28;5079401;27;46924;-56
2021/11/17 08:41:04;;;;;;;;;47.25;34.25;;;;;11.51;97.15;102003.47;5079610;27;45367;-57
2021/11/17 08:43:31;;;;;;;;;54.25;38.00;;;;;11.48;96.88;102003.50;5079970;27;45458;-63
2021/11/17 08:45:56;;;;;;;;;46.25;36.25;;;;;11.50;96.93;102001.75;5079934;27;45247;-62
2021/11/17 08:48:25;;;;;;;;;44.50;34.25;;;;;11.51;96.93;102011.28;5079363;27;45318;-64
2021/11/17 08:50:54;;;;;;;;;49.00;31.75;;;;;11.50;97.23;102009.53;5080020;27;45405;-63
2021/11/17 08:53:22;;;;;;;;;50.50;36.75;;;;;11.56;97.05;102007.72;5080016;27;45298;-60
2021/11/17 08:55:47;;;;;;;;;48.25;34.25;;;;;11.62;96.87;102011.16;5077422;27;45846;-60
2021/11/17 08:58:14;;;;;;;;;52.00;33.25;;;;;11.64;96.56;102012.00;5079210;27;45516;-62
2021/11/17 09:00:41;;;;;;;;;51.00;36.00;;;;;11.65;96.69;102016.34;5079967;28;45381;-62
2021/11/17 09:03:08;;;;;;;;;55.50;39.75;;;;;11.67;96.77;102020.63;5079962;27;45430;-59
2021/11/17 09:05:42;;;;;;;;;48.00;35.25;;;;;11.69;96.50;102018.00;5088980;27;45233;-58
2021/11/17 09:08:07;;;;;;;;;48.50;34.50;;;;;11.64;96.38;102015.47;5083148;27;47061;-60
2021/11/17 09:10:37;;;;;;;;;46.75;30.25;;;;;11.60;96.62;102013.75;5079604;28;45334;-59
2021/11/17 09:13:04;;;;;;;;;42.50;31.00;;;;;11.55;96.75;102013.81;5079609;27;45345;-61
2021/11/17 09:15:34;;;;;;;;;47.00;32.50;;;;;11.56;97.22;102017.28;5091245;27;45515;-57
2021/11/17 09:18:00;;;;;;;;;38.00;30.50;;;;;11.57;97.28;102016.41;5081231;27;45231;-58
2021/11/17 09:20:27;;;;;;;;;51.75;34.50;;;;;11.62;96.95;102025.03;5069874;27;45188;-59
2021/11/17 09:22:54;;;;;;;;;49.25;35.00;;;;;11.66;97.06;102025.88;5062577;28;45281;-58
2021/11/17 09:25:21;;;;;;;;;47.50;35.75;;;;;11.71;97.00;102037.94;5079389;28;45531;-58
2021/11/17 09:27:47;;;;;;;;;46.75;35.00;;;;;11.77;96.74;102030.06;5079121;27;45503;-58
2021/11/17 09:30:19;;;;;;;;;44.75;33.75;;;;;11.84;96.43;102041.31;5079287;27;45239;-60
2021/11/17 09:32:46;;;;;;;;;49.00;34.25;;;;;11.85;96.60;102046.50;5079463;27;45303;-60
2021/11/17 09:35:14;;;;;;;;;55.25;41.00;;;;;11.91;96.20;102042.09;5079467;27;45448;-59
2021/11/17 09:37:44;;;;;;;;;49.50;36.00;;;;;11.98;96.29;102033.31;5078433;27;45574;-60
2021/11/17 09:40:13;;;;;;;;;46.00;34.00;;;;;12.09;95.91;102042.72;5078964;27;45935;-60
2021/11/17 09:42:38;;;;;;;;;34.00;27.00;;;;;12.14;95.54;102040.91;5079344;27;45280;-60
2021/11/17 09:45:08;;;;;;;;;53.00;34.50;;;;;12.25;95.43;102048.59;5079195;27;45299;-60
2021/11/17 09:47:34;;;;;;;;;43.75;34.25;;;;;12.34;95.40;102055.44;5077529;28;48432;-61
2021/11/17 09:50:29;;;;;;;;;50.75;37.50;;;;;12.46;94.94;102057.88;5078201;27;45293;-60
2021/11/17 09:53:00;;;;;;;;;29.50;25.50;;;;;12.54;93.75;102060.34;5082916;28;45412;-61
2021/11/17 09:55:36;;;;;;;;;42.25;35.50;;;;;12.50;93.99;102062.16;5082456;28;45243;-61
2021/11/17 09:58:28;;;;;;;;;54.25;33.50;;;;;12.49;94.30;102061.28;5082297;27;46314;-61
2021/11/17 10:01:08;;;;;;;;;50.25;37.00;;;;;12.57;94.16;102068.13;5082827;28;45452;-60
2021/11/17 10:03:39;;;;;;;;;53.75;40.00;;;;;12.55;93.79;102069.91;5082717;27;45383;-60
2021/11/17 10:14:24;;;;;;;;;48.25;35.50;;;;;12.65;92.99;102080.19;5082984;27;45470;-60
2021/11/17 10:16:50;;;;;;;;;40.75;34.00;;;;;12.65;93.25;102069.75;5092570;27;45395;-62
2021/11/17 10:19:26;;;;;;;;;42.25;34.50;;;;;12.69;93.12;102079.25;5081920;27;45707;-63
2021/11/17 10:22:02;;;;;;;;;44.00;34.25;;;;;12.74;93.64;102076.56;5070377;28;45796;-62
2021/11/17 10:24:47;;;;;;;;;43.75;34.25;;;;;12.82;93.06;102082.56;5082006;27;45310;-63
2021/11/17 10:27:21;;;;;;;;;35.50;30.75;;;;;12.89;92.92;102081.56;5080511;28;45426;-64
2021/11/17 10:30:37;;;;;;;;;44.75;33.75;;;;;12.95;92.48;102081.47;5069211;28;46591;-59
2021/11/17 10:33:16;;;;;;;;;48.75;34.75;;;;;12.99;92.64;102077.06;5017951;28;45468;-59
2021/11/17 10:35:46;;;;;;;;;40.00;33.25;;;;;13.04;92.58;102076.13;5077567;28;45467;-59
2021/11/17 10:38:29;;;;;;;;;44.25;36.00;;;;;13.09;92.12;102061.22;5081993;27;45740;-58
2021/11/17 10:41:04;;;;;;;;;47.50;36.25;;;;;13.13;91.79;102079.44;5081441;27;45386;-59
2021/11/17 10:43:34;;;;;;;;;47.25;31.75;;;;;13.18;92.41;102080.25;5081899;27;45335;-57
2021/11/17 10:46:10;;;;;;;;;40.00;34.00;;;;;13.30;92.30;102077.44;5069095;28;45290;-57
2021/11/17 10:48:40;;;;;;;;;41.75;32.00;;;;;13.36;90.99;102078.19;5081254;27;45207;-57
2021/11/17 10:51:08;;;;;;;;;45.25;34.75;;;;;13.39;91.55;102075.53;5081273;27;47435;-57
2021/11/17 10:53:36;;;;;;;;;40.50;34.50;;;;;13.42;91.26;102072.03;5081098;27;45851;-56
2021/11/17 10:56:12;;;;;;;;;42.50;33.50;;;;;13.54;90.62;102073.53;5081331;28;45280;-57
2021/11/17 10:58:41;;;;;;;;;41.50;32.75;;;;;13.79;91.13;102068.69;5079984;27;45557;-56
2021/11/17 11:01:27;;;;;;;;;38.50;31.75;;;;;13.99;89.89;102070.03;5080978;27;45330;-56
2021/11/17 11:03:59;;;;;;;;;38.00;33.00;;;;;14.05;89.49;102063.81;5069273;28;45281;-55
2021/11/17 11:06:36;;;;;;;;;40.50;33.75;;;;;14.31;89.97;102071.97;5077206;27;45379;-56
2021/11/17 11:09:10;;;;;;;;;48.00;34.00;;;;;14.78;89.64;102070.06;5080981;27;45471;-57
2021/11/17 11:11:42;;;;;;;;;42.25;31.50;;;;;15.18;86.65;102063.84;5080087;27;46375;-55
2021/11/17 11:14:20;;;;;;;;;34.75;31.25;;;;;15.34;87.80;102065.19;5080495;27;45814;-55
2021/11/17 11:16:52;;;;;;;;;41.75;33.75;;;;;16.06;87.40;102066.72;5081001;27;45386;-55
2021/11/17 11:19:20;;;;;;;;;38.75;31.25;;;;;16.25;84.81;102071.41;5080417;27;45320;-55
2021/11/17 11:21:45;;;;;;;;;38.75;32.25;;;;;16.63;84.16;102065.00;5067854;28;46376;-55
2021/11/17 11:24:30;;;;;;;;;32.25;28.75;;;;;16.59;77.65;102056.34;5080459;27;45424;-55
2021/11/17 11:26:58;;;;;;;;;32.25;29.25;;;;;16.28;76.63;102053.81;5079590;27;45429;-55
2021/11/17 11:29:29;;;;;;;;;34.00;31.00;;;;;16.09;78.48;102050.03;5079675;28;45374;-55
2021/11/17 11:31:56;;;;;;;;;29.50;24.00;;;;;15.85;78.49;102045.50;5080637;27;45548;-56
2021/11/17 11:34:29;;;;;;;;;28.50;25.75;;;;;15.77;79.22;102045.69;5079984;27;45414;-56
2021/11/17 11:36:55;;;;;;;;;35.25;28.75;;;;;15.73;78.67;102049.31;5078640;28;45762;-55
2021/11/17 11:39:21;;;;;;;;;28.75;26.00;;;;;15.70;78.03;102044.16;5080386;27;45321;-55
2021/11/17 11:42:18;;;;;;;;;30.75;27.50;;;;;15.59;78.51;102043.59;5079716;27;47027;-59
2021/11/17 11:45:16;;;;;;;;;26.00;24.75;;;;;15.41;80.12;102051.00;5015463;28;45577;-57
2021/11/17 11:48:13;;;;;;;;;29.25;26.00;;;;;15.31;79.99;102051.31;5065003;28;45251;-57
2021/11/17 11:50:39;;;;;;;;;36.25;30.25;;;;;15.44;80.65;102055.31;5060844;28;46927;-56
2021/11/17 11:53:12;;;;;;;;;29.33;25.67;;;;;15.41;79.28;102050.16;5076784;28;45422;-57
2021/11/17 11:55:50;;;;;;;;;21.75;18.25;;;;;15.32;79.54;102048.63;5076429;27;46000;-57
2021/11/17 11:58:18;;;;;;;;;32.75;25.75;;;;;15.28;80.28;102046.16;5074149;28;45428;-56
2021/11/17 12:00:46;;;;;;;;;32.50;26.25;;;;;15.34;80.28;102043.34;5080172;28;45273;-58
2021/11/17 12:03:15;;;;;;;;;34.75;27.50;;;;;15.57;80.90;102040.13;5079946;27;45373;-59
2021/11/17 12:05:41;;;;;;;;;29.75;22.75;;;;;15.70;79.21;102042.41;5079636;28;45419;-59
2021/11/17 12:08:27;;;;;;;;;28.25;24.75;;;;;15.79;79.87;102043.88;5077329;28;45414;-59
2021/11/17 12:11:04;;;;;;;;;32.50;26.75;;;;;15.87;79.38;102039.31;5080034;27;45390;-58
2021/11/17 12:13:56;;;;;;;;;29.25;25.25;;;;;15.99;78.45;102036.31;5066563;28;46391;-60
2021/11/17 12:16:26;;;;;;;;;23.75;20.00;;;;;16.00;77.50;102038.03;5080141;27;45774;-59
2021/11/17 12:19:00;;;;;;;;;24.25;20.00;;;;;16.01;78.37;102033.63;5080211;27;45284;-60
2021/11/17 12:21:43;;;;;;;;;22.75;19.25;;;;;16.06;76.73;102040.50;5066258;28;45431;-61
2021/11/17 12:24:34;;;;;;;;;17.00;14.50;;;;;16.02;77.26;102046.75;5079817;27;46484;-57
2021/11/17 12:27:18;;;;;;;;;17.75;13.25;;;;;16.02;77.00;102057.22;5079533;28;45546;-58
2021/11/17 12:29:46;;;;;;;;;16.25;15.50;;;;;16.02;76.80;102049.34;5080344;28;45455;-57
2021/11/17 12:32:28;;;;;;;;;18.75;15.25;;;;;15.89;74.05;102055.84;5079858;27;45724;-57
2021/11/17 12:35:05;;;;;;;;;15.75;11.75;;;;;15.81;76.42;102058.66;5089012;27;46498;-58
2021/11/17 12:37:36;;;;;;;;;14.00;11.00;;;;;15.75;74.54;102055.38;5086705;27;45357;-58
2021/11/17 12:40:10;;;;;;;;;14.00;12.00;;;;;15.65;75.35;102057.41;5088957;27;45286;-61
2021/11/17 12:42:49;;;;;;;;;15.00;12.50;;;;;15.65;76.57;102051.31;5079746;27;45418;-59
2021/11/17 12:45:29;;;;;;;;;14.75;12.25;;;;;15.69;75.17;102047.69;5079717;27;45410;-57
2021/11/17 12:48:29;;;;;;;;;11.75;11.75;;;;;15.69;76.36;102053.78;5079261;28;45450;-58
2021/11/17 12:51:07;;;;;;;;;11.25;9.25;;;;;15.63;76.62;102056.59;5067388;28;45365;-57
2021/11/17 12:53:36;;;;;;;;;10.00;8.00;;;;;15.56;76.58;102056.75;5079882;28;45272;-58
2021/11/17 12:56:18;;;;;;;;;9.75;7.25;;;;;15.48;76.42;102046.47;5079578;28;45426;-59
2021/11/17 12:58:49;;;;;;;;;7.75;6.25;;;;;15.39;75.86;102051.94;5079708;27;45286;-58
2021/11/17 13:01:35;;;;;;;;;11.25;6.75;;;;;15.28;76.09;102046.16;5092435;27;45333;-59
2021/11/17 13:04:12;;;;;;;;;9.00;6.25;;;;;15.20;76.13;102052.44;5067732;28;45523;-58
2021/11/17 13:06:40;;;;;;;;;8.75;6.75;;;;;15.10;76.89;102047.47;5074640;27;46325;-58
2021/11/17 13:09:05;;;;;;;;;9.25;8.75;;;;;14.98;77.10;102053.00;5073021;28;45454;-59
2021/11/17 13:11:31;;;;;;;;;11.75;8.25;;;;;14.91;77.91;102042.69;5074567;28;45503;-59
2021/11/17 13:13:59;;;;;;;;;9.75;7.00;;;;;14.86;78.03;102043.72;5077399;27;45300;-58
2021/11/17 13:16:37;;;;;;;;;7.00;6.00;;;;;14.82;77.87;102047.31;5077715;27;45406;-59
2021/11/17 13:19:17;;;;;;;;;12.75;11.25;;;;;14.73;78.06;102039.66;5076530;28;45468;-59
2021/11/17 13:21:55;;;;;;;;;13.50;9.50;;;;;14.72;78.69;102048.41;5077443;28;45560;-59
2021/11/17 13:24:21;;;;;;;;;9.75;9.75;;;;;14.72;78.61;102051.03;5076693;28;45437;-57
2021/11/17 13:26:51;;;;;;;;;16.33;13.33;;;;;14.74;78.65;102055.31;5080621;28;46200;-65
2021/11/17 13:29:24;;;;;;;;;11.25;9.25;;;;;14.72;78.52;102056.25;5082137;27;45203;-60
2021/11/17 13:32:11;;;;;;;;;13.00;10.50;;;;;14.67;78.78;102061.63;5082733;27;45367;-59
2021/11/17 13:34:46;;;;;;;;;13.00;9.00;;;;;14.64;79.21;102061.69;5081687;28;45659;-62
2021/11/17 13:37:35;;;;;;;;;14.00;10.25;;;;;14.63;78.91;102065.22;5082832;27;45420;-59
2021/11/17 13:40:09;;;;;;;;;9.50;7.00;;;;;14.56;78.90;102067.09;5082650;27;45342;-60
2021/11/17 13:42:36;;;;;;;;;10.50;8.00;;;;;14.55;79.24;102078.44;5082982;28;45345;-61
2021/11/17 13:45:17;;;;;;;;;13.25;10.50;;;;;14.55;78.92;102074.97;5081636;27;45349;-62
2021/11/17 13:47:43;;;;;;;;;13.50;8.00;;;;;14.56;79.24;102071.44;5081760;27;45583;-59
2021/11/17 13:50:11;;;;;;;;;9.75;9.75;;;;;14.57;79.52;102066.19;5082449;27;45253;-61
2021/11/17 13:52:40;;;;;;;;;11.00;9.50;;;;;14.63;79.17;102075.66;5082912;27;45323;-61
2021/11/17 13:55:10;;;;;;;;;8.50;7.75;;;;;14.66;79.25;102075.59;5081265;27;45550;-61
2021/11/17 13:57:36;;;;;;;;;8.25;6.50;;;;;14.69;79.36;102067.66;5082564;27;46413;-61
2021/11/17 14:00:06;;;;;;;;;9.25;9.25;;;;;14.78;79.33;102064.81;5082519;27;45613;-62
2021/11/17 14:02:31;;;;;;;;;11.75;9.00;;;;;14.86;79.38;102072.50;5082054;27;45548;-62
2021/11/17 14:04:56;;;;;;;;;10.50;10.00;;;;;14.96;79.40;102071.38;5080776;27;45605;-62
2021/11/17 14:07:22;;;;;;;;;15.50;11.00;;;;;15.03;78.00;102082.56;5083125;27;46356;-62
2021/11/17 14:09:48;;;;;;;;;13.75;9.75;;;;;15.03;77.79;102082.56;5082645;28;45276;-62
2021/11/17 14:12:14;;;;;;;;;14.75;11.50;;;;;15.05;78.61;102076.41;5082626;28;45293;-58
2021/11/17 14:14:41;;;;;;;;;10.25;10.25;;;;;15.05;78.52;102080.78;5082532;27;45476;-66
2021/11/17 14:17:07;;;;;;;;;10.50;9.50;;;;;15.05;78.38;102084.25;5082740;28;46212;-59
2021/11/17 14:19:34;;;;;;;;;10.00;5.00;;;;;15.10;77.88;102085.00;5080336;27;45223;-68
2021/11/17 14:22:00;;;;;;;;;17.75;11.75;;;;;15.15;76.92;102072.63;5071658;28;45258;-60